X  Cerrar Datos meteorológicos de aviación METAR     EDTY Adolf Würth Airport
Temperatura
12°C Temperatura
10°C Punto de rocío
88% Humedad



Viento
5 KM/H
3 MPH
1 M/S
3 NUDO



200°
SSO
Condiciones actuales

Nubes mayormente dispersas Nubes mayormente dispersas
Presión 1011.85 (hPa) - 29.88 (inHg)
Visibilidad 6 (milla) - 9.7 (km)
Aeropuerto
Código de aeropuerto EDTY

localidad: Adolf Würth Airport
Distancia: 59 (km)

Metar:
EDTY 190450Z AUTO 20003KT 140V250 9999 // SCT039/// BKN049/// 12/10 Q1012

Hora: 19-05-2024 06:50 CEST